Tiempo atmosférico en la estación meteorológica de Torrelavega, Sierrapando, Cantabria (100 m.)



Fecha
DESCASC
Temp. máxima en grados centígrados (hora)
DESCASC
Temp. mínima en grados centígrados (hora)
DESCASC
Temp. media en grados centígrados
DESCASC
Racha de viento máxima en m/sg (hora)
DESCASC
Velocidad máxima media en intervalos de 10 minutos(hora)
DESCASC
Precipitaciones diarias en mm
DESCASC
Precipitaciones de 00:00 a 06:00 en mm
DESCASC
Precipitaciones de 06:00 a 12:00 en mm
DESCASC
Precipitaciones de 12:00 a 18:00 en mm
DESCASC
Precipitaciones de 18:00 a 24:00 en mm
DESCASC
21-02-2021 18.9 (01:30) 6.7 (22:00) 12.8 14.17 (01:20) 8.61 (01:30) 11.2 0 0 1.4 9.8
20-02-2021 20.9 (14:40) 15 (04:50) 17.9 23.61 (01:40) 15.28 (11:20) 0 0 0 0 0
19-02-2021 18.8 (19:00) 5.8 (05:50) 12.3 20.28 (23:50) 12.5 (18:50) 0 0 0 0 0
18-02-2021 18.3 (05:50) 7.3 (00:00) 12.8 25.28 (06:30) 16.11 (06:30) 0.2 0 0 0.2 0
17-02-2021 18.1 (23:40) 6.2 (00:00) 12.2 17.78 (23:59) 12.22 (23:40) 0 0 0 0 0
16-02-2021 17.6 (01:50) 9.3 (00:00) 13.5 22.5 (11:10) 12.5 (11:10) 0 0 0 0 0
15-02-2021 22.1 (14:20) 14.1 (00:00) 18.1 18.33 (19:40) 10.28 (20:10) 0 0 0 0 0
14-02-2021 22.4 (13:30) 9.3 (00:00) 15.8 10.83 (19:50) 7.22 (19:50) 0 0 0 0 0
13-02-2021 16.9 (15:30) 7.7 (00:00) 12.3 6.67 (23:00) 5 (23:10) 0 0 0 0 0
12-02-2021 13.9 (00:00) 8.8 (00:00) 11.3 15.83 (12:30) 10.28 (12:30) 9.6 4.4 3.8 1.4 0
11-02-2021 17.5 (16:40) 8.7 (00:00) 13.1 6.39 (08:50) 4.44 (01:30) 0 0 0 0 0
10-02-2021 13.4 (13:30) 6.3 (00:00) 9.8 15.56 (11:40) 9.44 (10:00) 1.4 0.8 0.6 0 0
09-02-2021 14 (10:20) 8.2 (00:00) 11.1 17.78 (06:40) 10.83 (06:40) 1 0 0.2 0.8 0
08-02-2021 14.4 (12:30) 8.4 (00:00) 11.4 8.33 (15:10) 5.56 (15:10) 0.2 0 0.2 0 0
07-02-2021 12 (23:30) 4 (00:00) 8 9.44 (23:30) 5.28 (23:30) 0.4 0 0 0.2 0.2
06-02-2021 10 (01:20) 5.9 (00:00) 8 14.17 (05:30) 8.33 (04:40) 49 15.2 20.2 10.8 2.8
05-02-2021 9.8 (14:10) 7.9 (00:00) 8.9 4.72 (23:50) 3.06 (07:00) 13 0.4 3.8 1.6 7.2
04-02-2021 14.7 (00:10) 8.1 (00:00) 11.4 10.28 (01:50) 6.94 (01:50) 2 0 0 1 1
03-02-2021 17 (12:40) 10.5 (00:00) 13.8 17.22 (02:10) 11.11 (02:30) 0 0 0 0 0
02-02-2021 20.5 (12:30) 8.7 (00:00) 14.6 20 (23:59) 13.33 (23:59) 1.2 0 0 0.6 0.6
01-02-2021 15.5 (16:10) 11.5 (00:00) 13.5 18.89 (00:40) 12.22 (00:50) 0 0 0 0 0
31-01-2021 16.8 (16:40) 9.4 (00:00) 13.1 20.56 (02:10) 12.78 (23:59) 1.6 0 1.6 0 0
30-01-2021 17.9 (00:00) 10.4 (00:00) 14.1 20 (23:50) 12.22 (18:10) 1.2 1.2 0 0 0
29-01-2021 18.2 (13:30) 11.5 (00:00) 14.9 13.33 (23:40) 7.5 (23:00) 3.8 0.4 3.4 0 0
28-01-2021 18.3 (13:00) 9.8 (00:00) 14 6.11 (17:10) 4.17 (17:10) 0 0 0 0 0
27-01-2021 18.5 (17:00) 12.7 (00:00) 15.6 8.89 (06:20) 4.72 (06:50) -- 0.6 -- 0 0
26-01-2021 16 (16:10) 5.3 (00:00) 10.7 7.78 (02:40) 5 (02:40) 3.8 1.2 1.2 0.8 0.6
25-01-2021 9.8 (13:00) 7.3 (00:00) 8.6 6.11 (16:10) 4.44 (15:10) 10.4 3.6 2.6 2.6 1.6

Gráficas

Temp. máximas Temp. mínimas Temp. medias Precipitaciones Rachas de viento máximas Velocidades máximas media en intervalos de 10 minutos

Datos horarios

Fecha y hora oficial Temperatura (ºC) Velocidad del viento (km/h) Dirección del viento Racha (km/h) Dirección de racha Precipitación (mm) Presión (hPa) Tendencia (hPa) Humedad (%)
2021-02-23 23:00:00 15.7 13 Sudoeste 30 Sudoeste 0 -- -- 44
2021-02-23 22:00:00 15.8 14 Sudoeste 32 Sudoeste 0 -- -- 42
2021-02-23 21:00:00 16.6 27 Sudoeste 43 Sudoeste 0 -- -- 34
2021-02-23 20:00:00 16.7 28 Sudoeste 45 Sur 0 -- -- 32
2021-02-23 19:00:00 16.9 18 Sur 30 Sur 0 -- -- 30
2021-02-23 18:00:00 19 17 Sur 37 Sur 0 -- -- 29
2021-02-23 17:00:00 19.9 24 Sur 43 Sur 0 -- -- 27
2021-02-23 16:00:00 20.1 21 Sur 40 Sur 0 -- -- 29
2021-02-23 15:00:00 19.8 29 Sur 41 Sur 0 -- -- 31
2021-02-23 14:00:00 19.4 27 Sur 41 Sur 0 -- -- 30
2021-02-23 13:00:00 18.5 24 Sur 49 Sur 0 -- -- 32
2021-02-23 12:00:00 17.6 27 Sur 45 Sur 0 -- -- 32
2021-02-23 11:00:00 16.1 29 Sudoeste 50 Sudoeste 0 -- -- 36
2021-02-23 10:00:00 14.8 20 Sudoeste 41 Sudoeste 0 -- -- 38
2021-02-23 09:00:00 13.1 13 Sur 32 Sudoeste 0 -- -- 39
2021-02-23 08:00:00 11.3 9 Sur 19 Sudeste 0 -- -- 44
2021-02-23 07:00:00 10.8 14 Sudeste 34 Sudeste 0 -- -- 49
2021-02-23 06:00:00 10.5 22 Sudeste 31 Sudeste 0 -- -- 54
2021-02-23 05:00:00 9.7 6 Sur 17 Sur 0 -- -- 59
2021-02-23 04:00:00 10.1 13 Sur 21 Sudeste 0 -- -- 59
2021-02-23 03:00:00 10.1 16 Sudeste 22 Sudeste 0 -- -- 63
2021-02-23 02:00:00 10.2 13 Sudeste 19 Sudeste 0 -- -- 64
2021-02-23 01:00:00 9.8 11 Sur 16 Sudeste 0 -- -- 68
2021-02-23 00:00:00 9.5 6 Este 20 Sur 0 -- -- 72
2021-02-22 23:00:00 9.1 14 Sudeste 26 Sudeste 0 -- -- 78
2021-02-22 22:00:00 7.8 14 Sudeste 23 Sudeste 0 -- -- 88
2021-02-22 21:00:00 8.7 12 Sudeste 23 Este 0 -- -- 86
2021-02-22 20:00:00 9.1 15 Sudeste 23 Este 0 -- -- 85
2021-02-22 19:00:00 9.5 13 Este 17 Este 0 -- -- 82
2021-02-22 18:00:00 11 11 Nordeste 18 Norte 0 -- -- 75
2021-02-22 17:00:00 11.9 13 Nordeste 19 Norte 0 -- -- 66
2021-02-22 16:00:00 12.7 11 Nordeste 21 Nordeste 0 -- -- 64
2021-02-22 15:00:00 12.8 10 Nordeste 18 Nordeste 0 -- -- 65
2021-02-22 14:00:00 12.4 11 Norte 23 Noroeste 0 -- -- 66
2021-02-22 13:00:00 11.8 15 Noroeste 26 Noroeste 0 -- -- 68
2021-02-22 12:00:00 11.1 15 Noroeste 24 Noroeste 0 -- -- 72
2021-02-22 11:00:00 10.3 13 Oeste 21 Oeste 0 -- -- 77
2021-02-22 10:00:00 9 13 Oeste 25 Oeste 0 -- -- 83
2021-02-22 09:00:00 8.2 14 Oeste 24 Oeste 0 -- -- 87
2021-02-22 08:00:00 7.7 13 Oeste 25 Oeste 0.4 -- -- 92
2021-02-22 07:00:00 7.8 20 Oeste 31 Oeste 0.4 -- -- 92
2021-02-22 06:00:00 7.7 11 Oeste 26 Oeste 0 -- -- 94
2021-02-22 05:00:00 7.5 13 Oeste 25 Oeste 0.4 -- -- 94
2021-02-22 04:00:00 7 17 Sudoeste 23 Sudoeste 0.4 -- -- 95
2021-02-22 03:00:00 6.6 15 Sudoeste 19 Sudoeste 1.6 -- -- 95
2021-02-22 02:00:00 6.8 16 Sudoeste 26 Oeste 1.6 -- -- 95
2021-02-22 01:00:00 6.7 17 Sudoeste 24 Sudoeste 2 -- -- 94
2021-02-22 00:00:00 6.8 14 Sudoeste 27 Oeste 1.8 -- -- 93
2021-02-21 23:00:00 6.7 16 Sudoeste 30 Sudoeste 2 -- -- 93
2021-02-21 22:00:00 6.7 15 Sudoeste 33 Oeste 2.2 -- -- 93
2021-02-21 21:00:00 7.2 19 Oeste 29 Oeste 1.2 -- -- 93
2021-02-21 20:00:00 7.5 10 Oeste 23 Oeste 1.4 -- -- 94
2021-02-21 19:00:00 8 16 Oeste 28 Noroeste 1.2 -- -- 94
2021-02-21 18:00:00 8 12 Oeste 24 Oeste 1 -- -- 93
2021-02-21 17:00:00 8.4 14 Oeste 35 Oeste 0.4 -- -- 92
2021-02-21 16:00:00 9 27 Oeste 45 Oeste 0 -- -- 91
2021-02-21 15:00:00 10.4 22 Oeste 39 Noroeste 0 -- -- 90
2021-02-21 14:00:00 11.8 22 Noroeste 32 Noroeste 0 -- -- 86
2021-02-21 13:00:00 12.9 15 Noroeste 30 Noroeste 0 -- -- 81
2021-02-21 12:00:00 14.3 10 Nordeste 22 Norte 0 -- -- 79
2021-02-21 11:00:00 13.4 12 Norte 26 Norte 0 -- -- 82
2021-02-21 10:00:00 11.9 9 Nordeste 13 Norte 0 -- -- 88
2021-02-21 09:00:00 10.5 4 Nordeste 13 Norte 0 -- -- 89
2021-02-21 08:00:00 10 7 Norte 13 Norte 0 -- -- 91
2021-02-21 07:00:00 10.4 3 Oeste 9 Oeste 0 -- -- 89
2021-02-21 06:00:00 10.4 4 Norte 8 Norte 0 -- -- 89
2021-02-21 05:00:00 10.9 4 Norte 18 Oeste 0 -- -- 87
2021-02-21 04:00:00 11.5 5 Nordeste 20 Noroeste 0 -- -- 81
2021-02-21 03:00:00 12.7 6 Nordeste 34 Sudoeste 0 -- -- 72
2021-02-21 02:00:00 18.4 16 Sudoeste 51 Sudoeste 0 -- -- 26
2021-02-21 01:00:00 18.5 20 Sudoeste 42 Sudoeste 0 -- -- 28
2021-02-21 00:00:00 18.4 20 Sudoeste 40 Sur 0 -- -- 30
2021-02-20 23:00:00 18.4 19 Sur 55 Sudoeste 0 -- -- 31
2021-02-20 22:00:00 19.6 32 Sudoeste 51 Sudoeste 0 -- -- 28
2021-02-20 21:00:00 19.4 27 Sudoeste 56 Sudoeste 0 -- -- 29
2021-02-20 20:00:00 19.2 26 Sur 57 Sur 0 -- -- 30
2021-02-20 19:00:00 18.9 26 Sur 57 Sur 0 -- -- 32
2021-02-20 18:00:00 19.6 41 Sur 68 Sudoeste 0 -- -- 31
2021-02-20 17:00:00 19.9 38 Sur 71 Sur 0 -- -- 34
2021-02-20 16:00:00 19.9 40 Sur 71 Sur 0 -- -- 31
2021-02-20 15:00:00 20.6 45 Sudoeste 81 Sur 0 -- -- 27
2021-02-20 14:00:00 20.5 45 Sur 83 Sur 0 -- -- 31
2021-02-20 13:00:00 19.5 48 Sur 83 Sur 0 -- -- 34
2021-02-20 12:00:00 18.3 54 Sur 83 Sur 0 -- -- 35
2021-02-20 11:00:00 17.6 51 Sur 81 Sur 0 -- -- 38
2021-02-20 10:00:00 16.7 50 Sur 82 Sur 0 -- -- 38
2021-02-20 09:00:00 16.6 48 Sur 84 Sur 0 -- -- 36
2021-02-20 08:00:00 16.2 27 Sur 61 Sudeste 0 -- -- 38
2021-02-20 07:00:00 15.8 33 Sudeste 64 Sudeste 0 -- -- 41
2021-02-20 06:00:00 15.9 43 Sudeste 68 Sur 0 -- -- 43
2021-02-20 05:00:00 15 37 Sur 66 Sur 0 -- -- 47
2021-02-20 04:00:00 16.8 46 Sur 75 Sur 0 -- -- 42
2021-02-20 03:00:00 16.7 50 Sudoeste 84 Sudoeste 0 -- -- 43
2021-02-20 02:00:00 16.6 48 Sudoeste 85 Sudoeste 0 -- -- 44
2021-02-20 01:00:00 16.8 51 Sudoeste 78 Sur 0 -- -- 42
2021-02-20 00:00:00 16.9 42 Sudoeste 73 Sudoeste 0 -- -- 42
2021-02-19 23:00:00 17.1 30 Sudoeste 53 Sur 0 -- -- 42
2021-02-19 22:00:00 18.1 31 Sudoeste 57 Sudoeste 0 -- -- 36
2021-02-19 21:00:00 17.7 19 Sudoeste 69 Sudoeste 0 -- -- 37
2021-02-19 20:00:00 18.4 40 Sudoeste 69 Sudoeste 0 -- -- 33
2021-02-19 19:00:00 18.8 44 Sudoeste 69 Sudoeste 0 -- -- 32
2021-02-19 18:00:00 18.2 28 Sudoeste 49 Sudoeste 0 -- -- 37
2021-02-19 17:00:00 18.6 32 Sudoeste 49 Sudoeste 0 -- -- 35
2021-02-19 16:00:00 18 23 Sudoeste 39 Sur 0 -- -- 35
2021-02-19 15:00:00 17.9 22 Sudoeste 51 Sudoeste 0 -- -- 44
2021-02-19 14:00:00 17.7 22 Sur 60 Sudoeste 0 -- -- 50
2021-02-19 13:00:00 17.9 39 Sudoeste 60 Sudoeste 0 -- -- 49
2021-02-19 12:00:00 18.4 32 Sudoeste 50 Sur 0 -- -- 50
2021-02-19 11:00:00 17.1 25 Sur 45 Sudoeste 0 -- -- 52
2021-02-19 10:00:00 15.9 12 Sudoeste 27 Sur 0 -- -- 55
2021-02-19 09:00:00 13 12 Sudoeste 18 Sudoeste 0 -- -- 63
2021-02-19 08:00:00 7.5 10 Sudoeste 16 Sudoeste 0 -- -- 82
2021-02-19 07:00:00 6.3 6 Sudoeste 12 Sudoeste 0 -- -- 89
2021-02-19 06:00:00 6.1 3 Sudoeste 13 Oeste 0 -- -- 93
2021-02-19 05:00:00 6.1 6 Sudoeste 14 Oeste 0 -- -- 93
2021-02-19 04:00:00 6.6 5 Norte 13 Oeste 0 -- -- 93
2021-02-19 03:00:00 6.2 8 Oeste 15 Sudoeste 0 -- -- 93
2021-02-19 02:00:00 6.4 6 Oeste 11 Oeste 0 -- -- 93
2021-02-19 01:00:00 6.4 6 Sudoeste 17 Sudoeste 0 -- -- 93
2021-02-19 00:00:00 7.4 9 Sudoeste 13 Sudoeste 0 -- -- 93
2021-02-18 23:00:00 7.4 9 Sur 19 Sudeste 0 -- -- 93
2021-02-18 22:00:00 8 14 Sudeste 22 Sudeste 0 -- -- 91
2021-02-18 21:00:00 9 14 Sudeste 21 Sudeste 0 -- -- 89
2021-02-18 20:00:00 9.8 13 Sudeste 19 Sudeste 0 -- -- 86
2021-02-18 19:00:00 10.1 10 Sudeste 18 Sudeste 0 -- -- 87
2021-02-18 18:00:00 10.9 12 Sudeste 16 Sudeste 0 -- -- 85
2021-02-18 17:00:00 11.2 9 Sur 13 Sur 0 -- -- 80
2021-02-18 16:00:00 11 7 Sur 11 Sudoeste 0 -- -- 87
2021-02-18 15:00:00 10.7 6 Oeste 13 Noroeste 0.2 -- -- 89
2021-02-18 14:00:00 10.7 9 Oeste 30 Noroeste 0 -- -- 86
2021-02-18 13:00:00 10.3 13 Noroeste 28 Noroeste 0 -- -- 90
2021-02-18 12:00:00 11.4 12 Noroeste 27 Noroeste 0 -- -- 89
2021-02-18 11:00:00 11.6 12 Norte 32 Noroeste 0 -- -- 85
2021-02-18 10:00:00 12.2 22 Noroeste 33 Noroeste 0 -- -- 83
2021-02-18 09:00:00 12.9 17 Nordeste 23 Nordeste 0 -- -- 79
2021-02-18 08:00:00 13.3 22 Norte 65 Sudoeste 0 -- -- 74
2021-02-18 07:00:00 17.6 44 Sudoeste 91 Sudoeste 0 -- -- 43
2021-02-18 06:00:00 18.2 45 Sudoeste 81 Sudoeste 0 -- -- 39
2021-02-18 05:00:00 17.4 30 Sudoeste 48 Sudoeste 0 -- -- 43
2021-02-18 04:00:00 16.3 30 Sudeste 50 Sudeste 0 -- -- 54
2021-02-18 03:00:00 16.9 36 Sudeste 53 Sudeste 0 -- -- 52
2021-02-18 02:00:00 17 34 Sudeste 57 Sur 0 -- -- 53
2021-02-18 01:00:00 17.5 42 Sur 68 Sur 0 -- -- 53
2021-02-18 00:00:00 18.1 44 Sur 64 Sur 0 -- -- 52
2021-02-17 23:00:00 17.9 36 Sur 61 Sur 0 -- -- 54
2021-02-17 22:00:00 17.5 25 Sur 52 Sur 0 -- -- 55
2021-02-17 21:00:00 17.4 28 Sur 51 Sur 0 -- -- 54
2021-02-17 20:00:00 17 23 Sur 47 Sur 0 -- -- 56
2021-02-17 19:00:00 17.3 24 Sur 46 Sudoeste 0 -- -- 55
2021-02-17 18:00:00 17.5 14 Sur 23 Sur 0 -- -- 53
2021-02-17 17:00:00 17.7 5 Sudoeste 19 Sur 0 -- -- 52
2021-02-17 16:00:00 16.3 4 Nordeste 14 Norte 0 -- -- 74
2021-02-17 15:00:00 16.4 8 Norte 15 Norte 0 -- -- 73
2021-02-17 14:00:00 15.2 10 Norte 15 Norte 0 -- -- 73
2021-02-17 13:00:00 15.8 10 Norte 14 Nordeste 0 -- -- 72
2021-02-17 12:00:00 15.4 3 Nordeste 7 Sudoeste 0 -- -- 69
2021-02-17 11:00:00 12.4 2 Oeste 12 Sudoeste 0 -- -- 69
2021-02-17 10:00:00 9.1 9 Oeste 13 Oeste 0 -- -- 77
2021-02-17 09:00:00 7.8 7 Sudoeste 11 Sudoeste 0 -- -- 80
2021-02-17 08:00:00 6.3 9 Oeste 13 Sudoeste 0 -- -- 83
2021-02-17 07:00:00 6.5 11 Oeste 13 Oeste 0 -- -- 85
2021-02-17 06:00:00 7 10 Oeste 14 Oeste 0 -- -- 85
2021-02-17 05:00:00 7.7 4 Sudoeste 10 Sudoeste 0 -- -- 86
2021-02-17 04:00:00 7.9 3 Sur 12 Sudeste 0 -- -- 87
2021-02-17 03:00:00 7.9 8 Sur 13 Sudeste 0 -- -- 87
2021-02-17 02:00:00 7.8 11 Sur 18 Sudeste 0 -- -- 87
2021-02-17 01:00:00 8.3 13 Sudeste 17 Sudeste 0 -- -- 87
2021-02-17 00:00:00 9.4 6 Sudeste 13 Sudoeste 0 -- -- 83
2021-02-16 23:00:00 9.8 8 Sudoeste 12 Sudoeste 0 -- -- 81
2021-02-16 22:00:00 10.6 5 Sur 9 Sur 0 -- -- 80
2021-02-16 21:00:00 11.6 8 Sudeste 13 Sudeste 0 -- -- 75
2021-02-16 20:00:00 12.2 9 Sudeste 19 Sudeste 0 -- -- 74
2021-02-16 19:00:00 12.6 16 Sudeste 21 Sudeste 0 -- -- 75
2021-02-16 18:00:00 13.3 8 Este 15 Este 0 -- -- 74
2021-02-16 17:00:00 14.7 8 Nordeste 13 Este 0 -- -- 68
2021-02-16 16:00:00 13.4 10 Sudeste 19 Sudeste 0 -- -- 77
2021-02-16 15:00:00 12.9 12 Sudeste 17 Sudeste 0 -- -- 78
2021-02-16 14:00:00 13.6 10 Oeste 29 Oeste 0 -- -- 75
2021-02-16 13:00:00 12.8 24 Noroeste 53 Oeste 0 -- -- 78
2021-02-16 12:00:00 12.9 29 Oeste 81 Noroeste 0 -- -- 78
2021-02-16 11:00:00 17.2 11 Sudoeste 48 Sur 0 -- -- 51
2021-02-16 10:00:00 15.8 39 Sur 55 Sur 0 -- -- 51
2021-02-16 09:00:00 14.5 33 Sur 66 Sudoeste 0 -- -- 52
2021-02-16 08:00:00 17.4 29 Sudoeste 70 Sudoeste 0 -- -- 42
2021-02-16 07:00:00 15.9 40 Sudoeste 65 Sudoeste 0 -- -- 49
2021-02-16 06:00:00 16 36 Sur 58 Sudoeste 0 -- -- 50
2021-02-16 05:00:00 16.4 22 Sur 49 Sudoeste 0 -- -- 48
2021-02-16 04:00:00 16.7 28 Sudoeste 55 Sudoeste 0 -- -- 47
2021-02-16 03:00:00 17.2 31 Sudoeste 46 Sur 0 -- -- 46
2021-02-16 02:00:00 17.5 34 Sudoeste 57 Sudoeste 0 -- -- 46
2021-02-16 01:00:00 17 24 Sudoeste 54 Sudoeste 0 -- -- 50
2021-02-16 00:00:00 15.5 17 Sur 36 Sur 0 -- -- 56
2021-02-15 23:00:00 16.6 21 Sur 48 Sur 0 -- -- 54
2021-02-15 22:00:00 17.4 26 Sur 48 Sur 0 -- -- 51
2021-02-15 21:00:00 18.5 19 Sur 64 Sudoeste 0 -- -- 47
2021-02-15 20:00:00 19.1 36 Sudoeste 66 Sur 0 -- -- 46
2021-02-15 19:00:00 18.9 19 Sur 36 Sur 0 -- -- 45
2021-02-15 18:00:00 19 28 Sur 42 Sur 0 -- -- 45
2021-02-15 17:00:00 20 7 Sudeste 31 Sur 0 -- -- 41
2021-02-15 16:00:00 20.6 13 Sudeste 45 Sudoeste 0 -- -- 38
2021-02-15 15:00:00 21.6 29 Sur 50 Sur 0 -- -- 38
2021-02-15 14:00:00 21.4 29 Sur 47 Sur 0 -- -- 38
2021-02-15 13:00:00 20.3 13 Sudoeste 31 Sur 0 -- -- 43
2021-02-15 12:00:00 19.4 9 Sur 28 Sur 0 -- -- 43
2021-02-15 11:00:00 18.1 16 Sur 35 Sur 0 -- -- 42
2021-02-15 10:00:00 17.3 20 Sur 39 Sur 0 -- -- 41
2021-02-15 09:00:00 16.7 19 Sur 41 Sur 0 -- -- 44
2021-02-15 08:00:00 17 23 Sur 41 Sur 0 -- -- 42
2021-02-15 07:00:00 15.9 15 Sur 30 Sur 0 -- -- 50
2021-02-15 06:00:00 16.7 13 Sur 29 Sudoeste 0 -- -- 46
2021-02-15 05:00:00 16.7 20 Sudoeste 46 Sudoeste 0 -- -- 49
2021-02-15 04:00:00 17 27 Sudoeste 55 Sur 0 -- -- 50
2021-02-15 03:00:00 17.5 33 Sudoeste 51 Sudoeste 0 -- -- 50
2021-02-15 02:00:00 17.8 27 Sudoeste 45 Sudoeste 0 -- -- 49
2021-02-15 01:00:00 17 17 Sudoeste 31 Sudoeste 0 -- -- 52
2021-02-15 00:00:00 16.3 8 Sur 23 Sudoeste 0 -- -- 53
2021-02-14 23:00:00 16.9 10 Sur 19 Sudoeste 0 -- -- 50
2021-02-14 22:00:00 16.6 8 Sur 31 Sur 0 -- -- 53
2021-02-14 21:00:00 17 18 Sur 37 Sur 0 -- -- 53
2021-02-14 20:00:00 18 13 Sur 39 Sudoeste 0 -- -- 50
2021-02-14 19:00:00 17.4 15 Este 24 Sudeste 0 -- -- 55
2021-02-14 18:00:00 18.3 8 Sudeste 21 Sudeste 0 -- -- 55
2021-02-14 17:00:00 18.2 8 Sudeste 22 Sudeste 0 -- -- 57
2021-02-14 16:00:00 18.5 15 Sudeste 24 Sudeste 0 -- -- 57
2021-02-14 15:00:00 20.6 10 Sudeste 20 Sudoeste 0 -- -- 51
2021-02-14 14:00:00 21.3 11 Sudoeste 27 Sudoeste 0 -- -- 47
2021-02-14 13:00:00 21.1 10 Sudoeste 29 Sudoeste 0 -- -- 45
2021-02-14 12:00:00 20.4 12 Sudoeste 20 Sudoeste 0 -- -- 46
2021-02-14 11:00:00 18.1 3 Sur 13 Sur 0 -- -- 55
2021-02-14 10:00:00 12.2 5 Sudoeste 20 Sudeste 0 -- -- 67
2021-02-14 09:00:00 12.3 13 Sudeste 23 Sudeste 0 -- -- 69
2021-02-14 08:00:00 10.1 4 Sudoeste 21 Sudeste 0 -- -- 77
2021-02-14 07:00:00 9.8 11 Sur 17 Sudeste 0 -- -- 78
2021-02-14 06:00:00 10 10 Sur 15 Sudeste 0 -- -- 78
2021-02-14 05:00:00 9.6 10 Sur 18 Sudeste 0 -- -- 80
2021-02-14 04:00:00 9.8 10 Sur 21 Sudeste 0 -- -- 80
2021-02-14 03:00:00 10.2 16 Sudeste 20 Sudeste 0 -- -- 79
2021-02-14 02:00:00 10.1 8 Sur 15 Sudeste 0 -- -- 81
2021-02-14 01:00:00 10 10 Sur 22 Sudeste 0 -- -- 83
2021-02-14 00:00:00 10.6 17 Sudeste 23 Sudeste 0 -- -- 82
2021-02-13 23:00:00 10.8 17 Sudeste 24 Sudeste 0 -- -- 83
2021-02-13 22:00:00 11.1 12 Sudeste 21 Sur 0 -- -- 82
2021-02-13 21:00:00 12.1 14 Sudeste 19 Sudeste 0 -- -- 79
2021-02-13 20:00:00 12.9 8 Sudeste 13 Sudeste 0 -- -- 78
2021-02-13 19:00:00 13.9 6 Sudeste 10 Sudeste 0 -- -- 73
2021-02-13 18:00:00 15.7 2 Este 10 Norte 0 -- -- 72
2021-02-13 17:00:00 16.6 3 Oeste 5 Oeste 0 -- -- 60
2021-02-13 16:00:00 16.8 2 Sudoeste 8 Sudeste 0 -- -- 60
2021-02-13 15:00:00 15.8 2 Sudeste 13 Sudeste 0 -- -- 66
2021-02-13 14:00:00 14.5 9 Sudeste 14 Sudeste 0 -- -- 70
2021-02-13 13:00:00 12.7 5 Sudoeste 10 Oeste 0 -- -- 77
2021-02-13 08:00:00 8.3 7 Sur 19 Sudeste 0 -- -- 87
2021-02-13 07:00:00 8.3 8 Sudeste 14 Sudeste 0 -- -- 88
2021-02-13 06:00:00 8 9 Sur 18 Sudeste 0 -- -- 91
2021-02-13 05:00:00 7.8 11 Sur 18 Sudeste 0 -- -- 92
2021-02-13 04:00:00 7.9 13 Sudeste 19 Sudeste 0 -- -- 93
2021-02-13 03:00:00 8.1 15 Sudeste 23 Sudeste 0 -- -- 93
2021-02-13 02:00:00 8.1 10 Sur 14 Sudeste 0 -- -- 94
2021-02-13 01:00:00 8.4 8 Sur 12 Sur 0 -- -- 94
2021-02-13 00:00:00 8.8 9 Sudoeste 12 Sudeste 0 -- -- 93
2021-02-12 23:00:00 9.3 7 Sur 14 Sudoeste 0 -- -- 93
2021-02-12 22:00:00 9.7 12 Sudoeste 14 Sudoeste 0 -- -- 92
2021-02-12 21:00:00 10.5 9 Sudoeste 11 Sudoeste 0 -- -- 90
2021-02-12 20:00:00 11.2 9 Sudoeste 17 Oeste 0 -- -- 89
2021-02-12 19:00:00 11.5 10 Oeste 24 Noroeste 0 -- -- 88
2021-02-12 18:00:00 12.6 15 Noroeste 27 Noroeste 0 -- -- 87
2021-02-12 17:00:00 12.3 18 Noroeste 37 Noroeste 0.2 -- -- 89
2021-02-12 16:00:00 12.5 28 Noroeste 49 Noroeste 0.2 -- -- 87
2021-02-12 15:00:00 12.7 24 Noroeste 49 Oeste 0.4 -- -- 87
2021-02-12 14:00:00 12.4 33 Noroeste 54 Noroeste 0.4 -- -- 88
2021-02-12 13:00:00 11.4 30 Oeste 57 Oeste 0.2 -- -- 93
2021-02-12 12:00:00 11.9 26 Oeste 45 Oeste 0.4 -- -- 90
2021-02-12 11:00:00 11.5 26 Oeste 53 Oeste 0.6 -- -- 91
2021-02-12 10:00:00 11.9 33 Oeste 51 Oeste 0.4 -- -- 91
2021-02-12 09:00:00 11.6 22 Oeste 39 Oeste 1.4 -- -- 96
2021-02-12 08:00:00 11.8 30 Oeste 46 Oeste 0.6 -- -- 96
2021-02-12 07:00:00 11.6 11 Sudoeste 15 Sudoeste 0.4 -- -- 97
2021-02-12 06:00:00 11.6 10 Sudoeste 12 Sudoeste 0.2 -- -- 97
2021-02-12 05:00:00 11.6 8 Oeste 20 Oeste 1.2 -- -- 97
2021-02-12 04:00:00 11.7 13 Oeste 34 Oeste 3 -- -- 96
2021-02-12 03:00:00 12 23 Oeste 40 Oeste 0 -- -- 92
2021-02-12 02:00:00 12.4 18 Oeste 28 Oeste 0 -- -- 85
2021-02-12 01:00:00 12.3 6 Nordeste 13 Noroeste 0 -- -- 85
2021-02-12 00:00:00 13.9 5 Norte 18 Sudoeste 0 -- -- 77
2021-02-11 23:00:00 15.7 11 Sur 20 Sur 0 -- -- 73
2021-02-11 22:00:00 12.7 6 Este 17 Sudeste 0 -- -- 82
2021-02-11 21:00:00 12.9 5 Sudoeste 8 Sudoeste 0 -- -- 86
2021-02-11 20:00:00 13 4 Sur 11 Nordeste 0 -- -- 84
2021-02-11 19:00:00 14 8 Norte 9 Norte 0 -- -- 81
2021-02-11 18:00:00 16.5 6 Sudeste 19 Sudeste 0 -- -- 66
2021-02-11 17:00:00 17.5 14 Sudeste 22 Sudeste 0 -- -- 64
2021-02-11 16:00:00 16.2 6 Nordeste 19 Nordeste 0 -- -- 74
2021-02-11 15:00:00 15.2 9 Sudeste 17 Sudeste 0 -- -- 74
2021-02-11 14:00:00 14.1 5 Nordeste 20 Oeste 0 -- -- 76
2021-02-11 13:00:00 17.3 8 Noroeste 17 Noroeste 0 -- -- 63
2021-02-11 12:00:00 17.1 7 Sudeste 13 Sur 0 -- -- 63
2021-02-11 11:00:00 16.3 11 Sudeste 21 Sudeste 0 -- -- 62
2021-02-11 10:00:00 13.7 8 Sudeste 18 Sudeste 0 -- -- 66
2021-02-11 09:00:00 12.1 13 Sudeste 23 Sudeste 0 -- -- 68
2021-02-11 08:00:00 10.6 11 Sudeste 15 Sudeste 0 -- -- 76
2021-02-11 07:00:00 8.7 5 Sudeste 15 Sudeste 0 -- -- 88
2021-02-11 06:00:00 8.8 13 Sudeste 17 Sudeste 0 -- -- 88
2021-02-11 05:00:00 8.7 5 Sur 11 Sudeste 0 -- -- 88
2021-02-11 04:00:00 8.8 4 Este 15 Sudeste 0 -- -- 88
2021-02-11 03:00:00 8.8 11 Sudeste 18 Sudeste 0 -- -- 87
2021-02-11 02:00:00 9 13 Sudeste 22 Sudeste 0 -- -- 88
2021-02-11 01:00:00 9.3 12 Sudeste 17 Sudeste 0 -- -- 88
2021-02-11 00:00:00 9.7 9 Sudeste 13 Sudeste 0 -- -- 86
2021-02-10 23:00:00 10 7 Sudeste 11 Sudeste 0 -- -- 85
2021-02-10 22:00:00 10.4 6 Sudoeste 9 Sudoeste 0 -- -- 84
2021-02-10 21:00:00 10.5 5 Oeste 10 Oeste 0 -- -- 83
2021-02-10 20:00:00 10.7 3 Sudoeste 19 Noroeste 0 -- -- 82
2021-02-10 19:00:00 10.8 11 Oeste 32 Noroeste 0 -- -- 80
2021-02-10 18:00:00 11.2 17 Noroeste 37 Noroeste 0 -- -- 78
2021-02-10 17:00:00 13.1 19 Noroeste 50 Oeste 0 -- -- 70
2021-02-10 16:00:00 13.3 27 Noroeste 46 Noroeste 0 -- -- 68
2021-02-10 15:00:00 13.3 30 Noroeste 52 Noroeste 0 -- -- 67
2021-02-10 14:00:00 12.9 33 Noroeste 48 Noroeste 0 -- -- 66
2021-02-10 13:00:00 12.5 24 Noroeste 47 Noroeste 0 -- -- 67
2021-02-10 12:00:00 12 27 Oeste 56 Oeste 0 -- -- 65
2021-02-10 11:00:00 10.8 26 Noroeste 55 Oeste 0 -- -- 67
2021-02-10 10:00:00 10.2 34 Oeste 50 Oeste 0 -- -- 68
2021-02-10 09:00:00 7.7 14 Sudoeste 19 Sudoeste 0 -- -- 84
2021-02-10 08:00:00 7.6 9 Sudoeste 20 Sudoeste 0.2 -- -- 86
2021-02-10 07:00:00 7.1 12 Sudoeste 16 Sudoeste 0.4 -- -- 94
2021-02-10 06:00:00 7 6 Sudoeste 14 Oeste 0.4 -- -- 95
2021-02-10 05:00:00 6.8 10 Oeste 15 Oeste 0.4 -- -- 93
2021-02-10 04:00:00 6.5 12 Sudoeste 15 Sudoeste 0 -- -- 90
2021-02-10 03:00:00 6.5 7 Oeste 10 Oeste 0 -- -- 86
2021-02-10 02:00:00 6.6 6 Nordeste 14 Sudoeste 0 -- -- 85
2021-02-10 01:00:00 7.8 10 Sudoeste 12 Sudoeste 0 -- -- 79
2021-02-10 00:00:00 8.2 4 Sur 12 Sur 0 -- -- 81
2021-02-09 23:00:00 8.5 9 Sudeste 13 Sudeste 0 -- -- 83
2021-02-09 22:00:00 9.2 5 Sudeste 10 Este 0 -- -- 83
2021-02-09 21:00:00 9.6 3 Sur 9 Nordeste 0 -- -- 80
2021-02-09 20:00:00 10.1 8 Nordeste 11 Sudeste 0 -- -- 75
2021-02-09 19:00:00 10.4 3 Este 12 Nordeste 0 -- -- 78
2021-02-09 18:00:00 10.8 10 Norte 13 Nordeste 0 -- -- 77
2021-02-09 17:00:00 13.4 5 Norte 15 Noroeste 0 -- -- 63
2021-02-09 16:00:00 13.5 11 Noroeste 38 Oeste 0 -- -- 65
2021-02-09 15:00:00 11.4 17 Sudoeste 39 Sudeste 0 -- -- 86
2021-02-09 14:00:00 9.9 29 Sudeste 42 Sudeste 0.4 -- -- 93
2021-02-09 13:00:00 10 7 Sur 45 Noroeste 0.4 -- -- 89
2021-02-09 12:00:00 11.8 28 Noroeste 52 Oeste 0 -- -- 76
2021-02-09 11:00:00 13.8 14 Sudoeste 38 Sur 0 -- -- 60
2021-02-09 10:00:00 13.6 22 Sur 55 Sur 0 -- -- 59
2021-02-09 09:00:00 12.9 33 Sur 51 Sur 0 -- -- 60
2021-02-09 08:00:00 12.4 26 Sur 55 Sur 0 -- -- 59
2021-02-09 07:00:00 11.9 26 Sur 64 Sur 0.2 -- -- 61
2021-02-09 06:00:00 11.5 22 Sur 35 Sudeste 0 -- -- 63
2021-02-09 05:00:00 10.5 14 Sudoeste 23 Sudoeste 0 -- -- 74
2021-02-09 04:00:00 9.2 10 Oeste 18 Sudeste 0 -- -- 76
2021-02-09 03:00:00 9.1 14 Sudeste 22 Sudeste 0 -- -- 75
2021-02-09 02:00:00 8.9 15 Sudeste 26 Sudeste 0 -- -- 79
2021-02-09 01:00:00 8.7 9 Sur 14 Sudeste 0 -- -- 84
2021-02-09 00:00:00 8.6 7 Sur 13 Sudeste 0 -- -- 89
2021-02-08 23:00:00 8.4 10 Sudeste 16 Sudeste 0 -- -- 91
2021-02-08 22:00:00 8.9 10 Sur 17 Sudoeste 0 -- -- 91
2021-02-08 21:00:00 9.5 9 Sudoeste 13 Sudoeste 0 -- -- 89
2021-02-08 20:00:00 10 8 Oeste 15 Oeste 0 -- -- 87
2021-02-08 19:00:00 10.7 10 Oeste 28 Noroeste 0 -- -- 84
2021-02-08 18:00:00 11.5 12 Oeste 28 Noroeste 0 -- -- 78
2021-02-08 17:00:00 12.1 13 Noroeste 27 Noroeste 0 -- -- 73
2021-02-08 16:00:00 12.6 12 Noroeste 30 Noroeste 0 -- -- 70
2021-02-08 15:00:00 13.3 17 Noroeste 28 Noroeste 0 -- -- 65
2021-02-08 14:00:00 13.2 17 Noroeste 25 Noroeste 0 -- -- 64
2021-02-08 13:00:00 13.9 6 Noroeste 13 Norte 0 -- -- 60
2021-02-08 12:00:00 14.3 5 Noroeste 17 Oeste 0 -- -- 60
2021-02-08 11:00:00 13.1 6 Sur 13 Sudoeste 0 -- -- 73
2021-02-08 10:00:00 9.1 10 Sudoeste 12 Oeste 0 -- -- 86
2021-02-08 09:00:00 9 9 Sur 14 Sudoeste 0.2 -- -- 84
2021-02-08 08:00:00 9.6 6 Sudoeste 13 Sudoeste 0 -- -- 79
2021-02-08 07:00:00 9.3 10 Sudoeste 13 Sudoeste 0 -- -- 81
2021-02-08 06:00:00 10 13 Sudoeste 21 Oeste 0 -- -- 79
2021-02-08 05:00:00 10.3 14 Oeste 23 Oeste 0 -- -- 71
2021-02-08 04:00:00 11.2 4 Sur 26 Sur 0 -- -- 64
2021-02-08 03:00:00 11.4 6 Sudoeste 24 Sur 0 -- -- 66
2021-02-08 02:00:00 11.8 7 Sudoeste 28 Sudoeste 0 -- -- 61
2021-02-08 01:00:00 11.8 14 Sudoeste 28 Sudoeste 0 -- -- 63
2021-02-08 00:00:00 11.7 14 Sudoeste 34 Sur 0 -- -- 64
2021-02-07 23:00:00 10.9 14 Sur 33 Sudoeste 0 -- -- 67
2021-02-07 22:00:00 10.2 8 Sur 26 Sur 0 -- -- 70
2021-02-07 21:00:00 8.7 12 Sudeste 21 Sudeste 0 -- -- 83
2021-02-07 20:00:00 7.4 11 Sudeste 18 Sudeste 0.2 -- -- 90
2021-02-07 19:00:00 7.3 8 Sudeste 14 Sudeste 0 -- -- 88
2021-02-07 18:00:00 8.1 6 Este 8 Este 0.2 -- -- 80
2021-02-07 17:00:00 9.5 5 Este 11 Este 0 -- -- 71
2021-02-07 16:00:00 10.3 3 Nordeste 8 Nordeste 0 -- -- 65
2021-02-07 15:00:00 10.2 3 Norte 6 Nordeste 0 -- -- 66
2021-02-07 14:00:00 10.2 0 Calma 12 Oeste 0 -- -- 62
2021-02-07 13:00:00 9.3 9 Sudoeste 15 Oeste 0 -- -- 68
2021-02-07 12:00:00 9.4 8 Sudoeste 14 Sudoeste 0 -- -- 70
2021-02-07 11:00:00 7.3 9 Sudoeste 13 Sudoeste 0 -- -- 80
2021-02-07 10:00:00 6 9 Sur 12 Sur 0 -- -- 84
2021-02-07 09:00:00 4.2 10 Sudoeste 18 Sudoeste 0 -- -- 87
2021-02-07 08:00:00 4.1 13 Sudoeste 19 Sudoeste 0 -- -- 87
2021-02-07 07:00:00 4.3 14 Sudoeste 19 Sudoeste 0 -- -- 87
2021-02-07 06:00:00 4.8 13 Sudoeste 17 Sudoeste 0 -- -- 87
2021-02-07 05:00:00 5 13 Sudoeste 16 Sudoeste 0 -- -- 85
2021-02-07 04:00:00 5.5 12 Sudoeste 16 Sudoeste 0 -- -- 83
2021-02-07 03:00:00 6.1 11 Sudoeste 15 Sudoeste 0 -- -- 84
2021-02-07 02:00:00 6.3 12 Oeste 21 Oeste 0 -- -- 87
2021-02-07 01:00:00 5.9 11 Oeste 21 Oeste 0 -- -- 90
2021-02-07 00:00:00 5.9 14 Oeste 27 Oeste 0 -- -- 92
2021-02-06 23:00:00 6.2 18 Oeste 33 Oeste 0.6 -- -- 94
2021-02-06 22:00:00 6.6 15 Oeste 23 Oeste 0.6 -- -- 95
2021-02-06 21:00:00 6.7 14 Oeste 28 Oeste 0.6 -- -- 96
2021-02-06 20:00:00 6.9 13 Oeste 29 Noroeste 0.8 -- -- 95
2021-02-06 19:00:00 7.3 14 Oeste 23 Oeste 0.2 -- -- 95
2021-02-06 18:00:00 8.4 14 Noroeste 24 Noroeste 0.4 -- -- 91
2021-02-06 17:00:00 7.7 15 Noroeste 35 Norte 1.4 -- -- 99
2021-02-06 16:00:00 7.9 18 Norte 33 Norte 2 -- -- 100
2021-02-06 15:00:00 8.1 9 Oeste 39 Norte 3.4 -- -- 100
2021-02-06 14:00:00 8.2 15 Norte 31 Norte 1.8 -- -- 100
2021-02-06 13:00:00 8.6 18 Norte 30 Noroeste 1.8 -- -- 100
2021-02-06 12:00:00 8.6 17 Noroeste 33 Noroeste 1.6 -- -- 100
2021-02-06 11:00:00 8.3 18 Noroeste 28 Noroeste 2.2 -- -- 100
2021-02-06 10:00:00 8.4 20 Noroeste 30 Norte 3.2 -- -- 100
2021-02-06 09:00:00 8.6 15 Noroeste 31 Norte 3.6 -- -- 100
2021-02-06 08:00:00 8.5 22 Norte 33 Norte 4.6 -- -- 100
2021-02-06 07:00:00 8.4 21 Norte 40 Norte 5 -- -- 100
2021-02-06 06:00:00 8.5 24 Norte 51 Norte 3 -- -- 100
2021-02-06 05:00:00 8.6 25 Norte 46 Nordeste 1.2 -- -- 100
2021-02-06 04:00:00 9 27 Norte 46 Norte 2.2 -- -- 100
2021-02-06 03:00:00 9.5 21 Norte 31 Norte 3.8 -- -- 99
2021-02-06 02:00:00 9.8 13 Norte 21 Norte 4.4 -- -- 99
2021-02-06 01:00:00 9.9 6 Norte 11 Norte 0.6 -- -- 99
2021-02-06 00:00:00 9.8 5 Este 17 Este 1 -- -- 99
2021-02-05 23:00:00 9.5 4 Este 10 Sur 2 -- -- 99
2021-02-05 22:00:00 9.4 4 Sudoeste 9 Sudoeste 1.8 -- -- 99
2021-02-05 21:00:00 9.4 3 Sur 13 Sudoeste 1 -- -- 99
2021-02-05 20:00:00 9.4 6 Sudoeste 9 Sudoeste 1 -- -- 99
2021-02-05 19:00:00 9.3 4 Oeste 12 Oeste 0.4 -- -- 98
2021-02-05 18:00:00 9.4 8 Oeste 14 Oeste 0.2 -- -- 98
2021-02-05 17:00:00 9.5 6 Oeste 13 Oeste 0.2 -- -- 98
2021-02-05 16:00:00 9.7 3 Noroeste 8 Oeste 0.2 -- -- 97
2021-02-05 15:00:00 9.7 6 Noroeste 9 Noroeste 0 -- -- 97
2021-02-05 14:00:00 9.7 2 Norte 4 Sudoeste 0 -- -- 98
2021-02-05 13:00:00 9.5 2 Nordeste 5 Oeste 1 -- -- 98
2021-02-05 12:00:00 8.9 4 Oeste 9 Sudoeste 0.6 -- -- 98
2021-02-05 11:00:00 8.9 6 Sudoeste 9 Sudoeste 0.2 -- -- 98
2021-02-05 10:00:00 8.3 5 Sudoeste 14 Sudoeste 1 -- -- 98
2021-02-05 09:00:00 8.3 0 Calma 9 Sudoeste 1.4 -- -- 97
2021-02-05 08:00:00 8.3 5 Sur 10 Sudoeste 0.4 -- -- 97
2021-02-05 07:00:00 8.1 11 Sudoeste 13 Sudoeste 0.2 -- -- 97
2021-02-05 06:00:00 8 8 Sudoeste 10 Sudoeste 0 -- -- 97
2021-02-05 05:00:00 8.3 5 Sur 15 Sudeste 0.2 -- -- 97
2021-02-05 04:00:00 7.9 7 Sudoeste 9 Sudoeste 0.2 -- -- 97
2021-02-05 03:00:00 8.1 4 Sudoeste 11 Sur 0 -- -- 97
2021-02-05 02:00:00 8.1 6 Sur 10 Sudeste 0 -- -- 97
2021-02-05 01:00:00 8.1 9 Sur 12 Sur 0 -- -- 96
2021-02-05 00:00:00 8.1 5 Sur 13 Sudoeste 0 -- -- 96
2021-02-04 23:00:00 8.2 5 Sudoeste 13 Oeste 0 -- -- 96
2021-02-04 22:00:00 8.3 6 Oeste 10 Sudoeste 0 -- -- 94
2021-02-04 21:00:00 9 3 Este 13 Sudeste 0 -- -- 92
2021-02-04 20:00:00 9.1 10 Sudeste 22 Sudeste 0.2 -- -- 92
2021-02-04 19:00:00 9.2 13 Sudeste 24 Sudeste 0.8 -- -- 92
2021-02-04 18:00:00 9.6 15 Sudeste 21 Sudeste 0.2 -- -- 91
2021-02-04 17:00:00 10.2 11 Sudeste 17 Sudeste 0.6 -- -- 88
2021-02-04 16:00:00 11.8 6 Sudeste 10 Este 0.2 -- -- 84
2021-02-04 15:00:00 12.5 4 Nordeste 12 Noroeste 0 -- -- 82
2021-02-04 14:00:00 13 6 Norte 14 Norte 0 -- -- 82
2021-02-04 13:00:00 12.4 5 Oeste 17 Oeste 0 -- -- 70
2021-02-04 12:00:00 13 5 Sur 18 Sudeste 0 -- -- 68
2021-02-04 11:00:00 12.6 9 Sudeste 16 Sudeste 0 -- -- 66
2021-02-04 10:00:00 12 11 Sudeste 15 Sudeste 0 -- -- 64
2021-02-04 09:00:00 11.8 6 Sudeste 9 Sudeste 0 -- -- 61
2021-02-04 08:00:00 11.5 7 Sudoeste 18 Sudeste 0 -- -- 61
2021-02-04 07:00:00 12.1 15 Sudeste 18 Sudeste 0 -- -- 61
2021-02-04 06:00:00 11.8 8 Sur 11 Sudeste 0 -- -- 66
2021-02-04 05:00:00 11.7 6 Sur 16 Noroeste 0 -- -- 66
2021-02-04 04:00:00 12.8 14 Sudoeste 23 Sudoeste 0 -- -- 61
2021-02-04 03:00:00 14.3 14 Sudoeste 29 Sur 0 -- -- 55
2021-02-04 02:00:00 14.7 21 Sudoeste 37 Sur 0 -- -- 56
2021-02-04 01:00:00 14.4 24 Sur 36 Sur 0 -- -- 59
2021-02-04 00:00:00 14.6 23 Sur 37 Sur 0 -- -- 60
2021-02-03 23:00:00 14.4 17 Sudoeste 32 Sur 0 -- -- 64
2021-02-03 22:00:00 13.7 10 Sudoeste 27 Sudoeste 0 -- -- 67
2021-02-03 21:00:00 10.7 6 Sudeste 17 Sudeste 0 -- -- 80
2021-02-03 20:00:00 11 9 Sudeste 18 Este 0 -- -- 80
2021-02-03 19:00:00 11.5 9 Este 15 Este 0 -- -- 76
2021-02-03 18:00:00 12.6 12 Nordeste 22 Nordeste 0 -- -- 71
2021-02-03 17:00:00 13.8 16 Nordeste 24 Nordeste 0 -- -- 69
2021-02-03 16:00:00 14.4 17 Nordeste 28 Nordeste 0 -- -- 66
2021-02-03 15:00:00 15.4 18 Nordeste 26 Nordeste 0 -- -- 68
2021-02-03 14:00:00 16 14 Nordeste 23 Nordeste 0 -- -- 67
2021-02-03 13:00:00 16.8 13 Nordeste 19 Nordeste 0 -- -- 70
2021-02-03 12:00:00 15.9 10 Nordeste 14 Nordeste 0 -- -- 75
2021-02-03 11:00:00 14.6 9 Nordeste 15 Norte 0 -- -- 82
2021-02-03 10:00:00 12.6 5 Sudoeste 10 Sur 0 -- -- 85
2021-02-03 09:00:00 11.7 9 Sudoeste 11 Sudoeste 0 -- -- 87
2021-02-03 08:00:00 11.9 6 Oeste 7 Oeste 0 -- -- 86
2021-02-03 07:00:00 12.8 5 Este 9 Este 0 -- -- 83
2021-02-03 06:00:00 12.6 4 Sur 22 Noroeste 0 -- -- 84
2021-02-03 05:00:00 14 16 Noroeste 32 Sudoeste 0 -- -- 75
2021-02-03 04:00:00 15.7 11 Sudoeste 47 Sudoeste 0 -- -- 59
2021-02-03 03:00:00 16.1 30 Sudoeste 62 Sur 0 -- -- 57
2021-02-03 02:00:00 16 31 Sudoeste 50 Sur 0 -- -- 59
2021-02-03 01:00:00 15.9 33 Sur 58 Sur 0 -- -- 61
2021-02-03 00:00:00 15.9 48 Sur 72 Sur 0 -- -- 62
2021-02-02 23:00:00 15.8 35 Sur 55 Sur 0 -- -- 63
2021-02-02 22:00:00 15.4 22 Sudoeste 35 Sudoeste 0 -- -- 64
2021-02-02 21:00:00 14.6 6 Oeste 29 Sur 0.2 -- -- 72
2021-02-02 20:00:00 15.1 17 Sudoeste 44 Sudeste 0.4 -- -- 73
2021-02-02 19:00:00 16.1 25 Sudoeste 68 Sur 0 -- -- 65
2021-02-02 18:00:00 16.8 38 Sudoeste 61 Sur 0 -- -- 60
2021-02-02 17:00:00 16.8 30 Sudoeste 56 Sur 0.2 -- -- 62
2021-02-02 16:00:00 16.3 9 Sur 41 Sur 0 -- -- 72
2021-02-02 15:00:00 15.7 25 Sudoeste 39 Sudoeste 0.4 -- -- 72
2021-02-02 14:00:00 19.1 11 Sur 23 Sudoeste 0 -- -- 55
2021-02-02 13:00:00 19.1 15 Sur 31 Sudoeste 0 -- -- 54
2021-02-02 12:00:00 18.9 16 Sur 36 Sur 0 -- -- 55
2021-02-02 11:00:00 17 13 Sudoeste 29 Sudoeste 0 -- -- 60
2021-02-02 10:00:00 17 12 Sudoeste 23 Sudoeste 0 -- -- 58
2021-02-02 09:00:00 16.2 5 Sudeste 40 Sur 0 -- -- 59
2021-02-02 08:00:00 13.6 12 Sudoeste 27 Sur 0 -- -- 70
2021-02-02 07:00:00 11 5 Sur 15 Sudoeste 0 -- -- 83
2021-02-02 06:00:00 9.5 12 Sudoeste 17 Sudoeste 0 -- -- 90
2021-02-02 05:00:00 8.8 12 Sudoeste 14 Sudoeste 0 -- -- 91
2021-02-02 04:00:00 9.9 8 Sudoeste 16 Sudoeste 0 -- -- 88
2021-02-02 03:00:00 10.3 11 Sudoeste 15 Sudoeste 0 -- -- 89
2021-02-02 02:00:00 11.7 5 Este 14 Sudeste 0 -- -- 82
2021-02-02 01:00:00 13 9 Sur 15 Sudeste 0 -- -- 76
2021-02-02 00:00:00 13.7 14 Sudeste 22 Sudeste 0 -- -- 75
2021-02-01 23:00:00 13 7 Sudoeste 17 Sudeste 0 -- -- 84
2021-02-01 22:00:00 13.3 7 Sur 17 Sudeste 0 -- -- 84
2021-02-01 21:00:00 13.6 11 Sur 24 Sudeste 0 -- -- 84
2021-02-01 20:00:00 13.8 9 Sur 20 Sudeste 0 -- -- 86
2021-02-01 19:00:00 13.8 7 Sudeste 14 Sudeste 0 -- -- 84
2021-02-01 18:00:00 14 3 Nordeste 7 Norte 0 -- -- 83
2021-02-01 17:00:00 15 3 Norte 17 Noroeste 0 -- -- 77
2021-02-01 16:00:00 15.3 14 Noroeste 29 Oeste 0 -- -- 76
2021-02-01 15:00:00 14.8 14 Oeste 39 Oeste 0 -- -- 80
2021-02-01 14:00:00 14.7 16 Oeste 47 Oeste 0 -- -- 79
2021-02-01 13:00:00 14.5 26 Noroeste 45 Noroeste 0 -- -- 78
2021-02-01 12:00:00 14.5 27 Oeste 49 Oeste 0 -- -- 78
2021-02-01 11:00:00 13.8 17 Oeste 33 Oeste 0 -- -- 78
2021-02-01 10:00:00 12.7 12 Sudoeste 21 Sudoeste 0 -- -- 74
2021-02-01 09:00:00 11.5 8 Sudoeste 24 Sudoeste 0 -- -- 78
2021-02-01 08:00:00 12.1 15 Oeste 35 Oeste 0 -- -- 81
2021-02-01 07:00:00 12.8 23 Oeste 49 Noroeste 0 -- -- 76
2021-02-01 06:00:00 13.4 31 Noroeste 63 Noroeste 0 -- -- 71
2021-02-01 05:00:00 13.4 36 Noroeste 67 Oeste 0 -- -- 73
2021-02-01 04:00:00 13.2 33 Noroeste 63 Noroeste 0 -- -- 78
2021-02-01 03:00:00 13.3 32 Oeste 62 Oeste 0 -- -- 76
2021-02-01 02:00:00 13.1 38 Noroeste 68 Noroeste 0 -- -- 78
2021-02-01 01:00:00 12.9 35 Noroeste 68 Noroeste 0 -- -- 80
2021-02-01 00:00:00 13.4 46 Noroeste 68 Noroeste 0 -- -- 77
2021-01-31 23:00:00 16 38 Noroeste 57 Oeste 0 -- -- 55
2021-01-31 22:00:00 13.9 30 Oeste 66 Noroeste 0 -- -- 77
2021-01-31 21:00:00 14.1 35 Oeste 67 Oeste 0 -- -- 78
2021-01-31 20:00:00 13.8 24 Oeste 44 Noroeste 0 -- -- 83
2021-01-31 19:00:00 14.9 5 Oeste 19 Norte 0 -- -- 73
2021-01-31 18:00:00 16 4 Sudeste 20 Sudeste 0 -- -- 78
2021-01-31 17:00:00 16.5 15 Sudeste 22 Sudeste 0 -- -- 77
2021-01-31 16:00:00 15.2 7 Norte 12 Norte 0 -- -- 84
2021-01-31 15:00:00 16.3 0 Calma 23 Noroeste 0 -- -- 78
2021-01-31 14:00:00 16 23 Noroeste 38 Noroeste 0 -- -- 78
2021-01-31 13:00:00 16.1 8 Sudoeste 16 Sudoeste 0 -- -- 77
2021-01-31 12:00:00 13.5 8 Sudoeste 23 Sur 0 -- -- 90
2021-01-31 11:00:00 11 10 Sudoeste 18 Sur 0.2 -- -- 89
2021-01-31 10:00:00 9.9 12 Sur 27 Sudeste 0.2 -- -- 89
2021-01-31 09:00:00 10.7 11 Sur 19 Oeste 1.2 -- -- 81
2021-01-31 08:00:00 12.6 14 Oeste 44 Noroeste 0 -- -- 68
2021-01-31 07:00:00 12.6 26 Noroeste 46 Noroeste 0 -- -- 64
2021-01-31 06:00:00 12.2 29 Noroeste 60 Oeste 0 -- -- 63
2021-01-31 05:00:00 12.2 31 Noroeste 60 Oeste 0 -- -- 64
2021-01-31 04:00:00 11.7 36 Noroeste 61 Oeste 0 -- -- 68
2021-01-31 03:00:00 10.4 38 Noroeste 74 Oeste 0 -- -- 81
2021-01-31 02:00:00 11.2 41 Oeste 67 Oeste 0 -- -- 73
2021-01-31 01:00:00 11.3 36 Oeste 67 Oeste 0 -- -- 72
2021-01-31 00:00:00 11.3 42 Oeste 72 Oeste 0 -- -- 70
2021-01-30 23:00:00 11.5 39 Oeste 63 Oeste 0 -- -- 67
2021-01-30 22:00:00 11.4 42 Noroeste 70 Noroeste 0 -- -- 68
2021-01-30 21:00:00 11.8 39 Noroeste 64 Oeste 0 -- -- 64
2021-01-30 20:00:00 11.5 33 Noroeste 64 Oeste 0 -- -- 66
2021-01-30 19:00:00 11.2 21 Oeste 67 Oeste 0 -- -- 70
2021-01-30 18:00:00 12.4 37 Noroeste 59 Oeste 0 -- -- 58
2021-01-30 17:00:00 12.5 29 Oeste 53 Noroeste 0 -- -- 60
2021-01-30 16:00:00 12.6 30 Noroeste 57 Oeste 0 -- -- 56
2021-01-30 15:00:00 13 22 Oeste 43 Noroeste 0 -- -- 62
2021-01-30 14:00:00 12.2 20 Oeste 57 Noroeste 0 -- -- 71
2021-01-30 13:00:00 13 28 Noroeste 40 Noroeste 0 -- -- 62
2021-01-30 12:00:00 13.2 14 Noroeste 24 Noroeste 0 -- -- 66
2021-01-30 11:00:00 14.1 4 Sur 13 Sudeste 0 -- -- 81
2021-01-30 10:00:00 11.6 4 Sudoeste 13 Sudoeste 0 -- -- 92
2021-01-30 09:00:00 10.6 7 Sur 10 Sur 0 -- -- 90
2021-01-30 08:00:00 10.8 5 Nordeste 14 Oeste 0 -- -- 89
2021-01-30 07:00:00 11.6 5 Oeste 40 Norte 0 -- -- 89
2021-01-30 06:00:00 12.2 12 Oeste 21 Noroeste 0 -- -- 95
2021-01-30 05:00:00 12.4 4 Norte 28 Sudeste 0 -- -- 94
2021-01-30 04:00:00 12.7 14 Sudeste 24 Oeste 1.2 -- -- 93
2021-01-30 03:00:00 14.3 12 Noroeste 20 Noroeste 0 -- -- 82
2021-01-30 02:00:00 14.4 11 Oeste 23 Oeste 0 -- -- 81
2021-01-30 01:00:00 14.9 16 Oeste 35 Oeste 0 -- -- 79
2021-01-30 00:00:00 17.9 17 Sudoeste 48 Sudoeste 0 -- -- 58
2021-01-29 23:00:00 18.1 27 Sudoeste 42 Sudoeste 0 -- -- 59
2021-01-29 22:00:00 17.4 17 Sudoeste 26 Sudoeste 0 -- -- 64
2021-01-29 21:00:00 17.6 19 Sudoeste 30 Sudoeste 0 -- -- 64
2021-01-29 20:00:00 16.8 13 Sudoeste 25 Sudoeste 0 -- -- 72
2021-01-29 19:00:00 15.5 15 Sudeste 21 Sudeste 0 -- -- 84
2021-01-29 18:00:00 15.4 13 Sudeste 18 Este 0 -- -- 88
2021-01-29 17:00:00 16.1 5 Sudeste 12 Norte 0 -- -- 89
2021-01-29 16:00:00 16.3 9 Nordeste 17 Norte 0 -- -- 88
2021-01-29 15:00:00 17.1 9 Norte 15 Norte 0 -- -- 85
2021-01-29 14:00:00 17.9 9 Nordeste 17 Sudeste 0 -- -- 84
2021-01-29 13:00:00 17 9 Sur 15 Sudeste 0 -- -- 87
2021-01-29 12:00:00 14.8 10 Sudeste 15 Sudeste 0 -- -- 94
2021-01-29 11:00:00 13.5 9 Sudeste 14 Sudeste 0 -- -- 97
2021-01-29 10:00:00 12.1 9 Sur 13 Sudeste 1.6 -- -- 98
2021-01-29 09:00:00 11.9 9 Sur 16 Sudeste 0.8 -- -- 97
2021-01-29 08:00:00 11.9 7 Sur 13 Sudeste 0.4 -- -- 96
2021-01-29 07:00:00 11.9 6 Sur 10 Oeste 0.6 -- -- 94
2021-01-29 06:00:00 11.9 8 Oeste 13 Oeste 0.4 -- -- 93
2021-01-29 05:00:00 12.1 13 Sudoeste 17 Sudoeste 0 -- -- 91
2021-01-29 04:00:00 12.8 10 Sudoeste 18 Sudeste 0 -- -- 87
2021-01-29 03:00:00 12.7 11 Sur 18 Sudeste 0 -- -- 88
2021-01-29 02:00:00 12.4 9 Sur 17 Sur 0 -- -- 89
2021-01-29 01:00:00 11.9 9 Sur 18 Sudoeste 0 -- -- 92
2021-01-29 00:00:00 11.5 15 Sudoeste 19 Sudoeste 0 -- -- 91
2021-01-28 23:00:00 11.7 7 Sudoeste 13 Sudoeste 0 -- -- 90
2021-01-28 22:00:00 12.4 9 Sur 12 Sudoeste 0 -- -- 89
2021-01-28 21:00:00 12.1 10 Sudoeste 12 Sudoeste 0 -- -- 89
2021-01-28 20:00:00 13.3 6 Oeste 11 Sudoeste 0 -- -- 86
2021-01-28 19:00:00 13.9 4 Noroeste 14 Noroeste 0 -- -- 82
2021-01-28 18:00:00 15.1 7 Nordeste 22 Este 0 -- -- 77
2021-01-28 17:00:00 16 13 Nordeste 18 Este 0 -- -- 78
2021-01-28 16:00:00 17.2 14 Este 18 Este 0 -- -- 76
2021-01-28 15:00:00 17.2 9 Nordeste 15 Nordeste 0 -- -- 77
2021-01-28 14:00:00 17.7 3 Nordeste 7 Norte 0 -- -- 69
2021-01-28 13:00:00 18.3 3 Oeste 7 Oeste 0 -- -- 68
2021-01-28 12:00:00 16 5 Sudoeste 9 Sudeste 0 -- -- 83
2021-01-28 11:00:00 12.9 8 Sur 13 Sudoeste 0 -- -- 97
2021-01-28 10:00:00 10.7 9 Sudoeste 14 Sudoeste 0 -- -- 99
2021-01-28 09:00:00 9.9 10 Sur 14 Sudoeste 0 -- -- 99
2021-01-28 08:00:00 9.8 8 Sudoeste 15 Oeste 0 -- -- 98
2021-01-28 07:00:00 10.8 6 Sur 10 Sudoeste 0 -- -- 98
2021-01-28 06:00:00 10.7 7 Sudoeste 13 Sudoeste 0 -- -- 97
2021-01-28 05:00:00 11.8 10 Sudeste 13 Sudeste 0 -- -- 96
2021-01-28 04:00:00 12.2 8 Sudoeste 12 Este 0 -- -- 95
2021-01-28 03:00:00 12.8 10 Este 19 Este 0 -- -- 95
2021-01-28 02:00:00 13.2 8 Sudeste 17 Este 0 -- -- 94
2021-01-28 01:00:00 13.5 12 Sudeste 21 Sudeste 0 -- -- 93
2021-01-28 00:00:00 13.7 5 Sudeste 13 Sudeste 0 -- -- 91
2021-01-27 23:00:00 14 5 Sudeste 12 Nordeste 0 -- -- 89
2021-01-27 22:00:00 13.8 9 Nordeste 14 Norte 0 -- -- 90
2021-01-27 21:00:00 14.5 9 Nordeste 13 Nordeste 0 -- -- 88
2021-01-27 20:00:00 15.1 5 Nordeste 10 Nordeste 0 -- -- 88
2021-01-27 19:00:00 15.5 6 Nordeste 10 Este 0 -- -- 86
2021-01-27 18:00:00 16.3 6 Este 8 Nordeste 0 -- -- 82
2021-01-27 17:00:00 18.5 2 Noroeste 12 Oeste 0 -- -- 77
2021-01-27 16:00:00 17.9 12 Sudoeste 19 Sudoeste 0 -- -- 80
2021-01-27 15:00:00 17.5 11 Sudoeste 17 Sudoeste 0 -- -- 85
2021-01-27 14:00:00 16.4 7 Sudoeste 10 Sudoeste 0 -- -- 91
2021-01-27 13:00:00 16.1 3 Sur 8 Sur 0 -- -- 97
2021-01-27 12:00:00 14.2 3 Oeste -- -- -- -- -- 99
2021-01-27 11:00:00 13.5 3 Sudeste 6 Este -- -- -- 99
2021-01-27 10:00:00 13.5 2 Nordeste 12 Noroeste 0 -- -- 99
2021-01-27 09:00:00 13.5 7 Oeste 15 Oeste 0 -- -- 99
2021-01-27 08:00:00 13.4 9 Oeste 26 Noroeste 0.2 -- -- 99
2021-01-27 07:00:00 13.5 14 Oeste 32 Oeste 0 -- -- 99
2021-01-27 06:00:00 13.5 10 Oeste 18 Oeste 0 -- -- 99
2021-01-27 05:00:00 13.3 10 Oeste 15 Oeste 0.2 -- -- 98
2021-01-27 04:00:00 13.3 7 Sudoeste 14 Oeste 0 -- -- 98
2021-01-27 03:00:00 13.2 8 Oeste 13 Oeste 0.2 -- -- 98
2021-01-27 02:00:00 13.1 10 Sudoeste 15 Sudoeste 0 -- -- 98
2021-01-27 01:00:00 12.7 8 Oeste 17 Sudoeste 0.2 -- -- 97
2021-01-27 00:00:00 12.8 12 Sudoeste 15 Sudoeste 0 -- -- 97
2021-01-26 23:00:00 12.7 10 Sudoeste 15 Sudoeste 0.2 -- -- 96
2021-01-26 22:00:00 13.1 10 Sudoeste 16 Noroeste 0 -- -- 95
2021-01-26 21:00:00 14.1 5 Sudoeste 15 Sur 0 -- -- 86
2021-01-26 20:00:00 14.5 5 Sur 12 Sudeste 0.2 -- -- 83
2021-01-26 19:00:00 14.9 8 Sur 10 Sur 0.2 -- -- 83
2021-01-26 18:00:00 15.2 7 Sudoeste 14 Sudoeste 0 -- -- 77
2021-01-26 17:00:00 15.7 5 Sudoeste 12 Sudoeste 0.2 -- -- 78
2021-01-26 16:00:00 15.9 8 Sudoeste 13 Sudoeste 0.2 -- -- 78
2021-01-26 15:00:00 14.7 4 Sudeste 5 Sudeste 0 -- -- 74
2021-01-26 14:00:00 14.6 3 Oeste 7 Sur 0.2 -- -- 72
2021-01-26 13:00:00 13.7 6 Sur 12 Sudeste 0.2 -- -- 72
2021-01-26 12:00:00 12 4 Sur 11 Sudeste 0.2 -- -- 75
2021-01-26 11:00:00 10.4 8 Sudeste 11 Sudeste 0.2 -- -- 79
2021-01-26 10:00:00 8.9 8 Sudeste 14 Sudeste 0.2 -- -- 81
2021-01-26 09:00:00 7.5 9 Sudeste 14 Sur 0.2 -- -- 87
2021-01-26 08:00:00 6.1 9 Sudeste 14 Sudeste 0.2 -- -- 93
2021-01-26 07:00:00 5.4 10 Sur 18 Sudeste 0.2 -- -- 94
2021-01-26 06:00:00 5.6 12 Sudeste 19 Sudeste 0.2 -- -- 95
2021-01-26 05:00:00 5.7 14 Sudeste 20 Sudeste 0.2 -- -- 97
2021-01-26 04:00:00 5.8 9 Sudeste 14 Sur 0.2 -- -- 98
2021-01-26 03:00:00 5.8 11 Sur 28 Sudeste 0.2 -- -- 97
2021-01-26 02:00:00 6.3 10 Sur 18 Sudeste 0.2 -- -- 98
2021-01-26 01:00:00 6.8 11 Sudeste 17 Sudeste 0.2 -- -- 97
2021-01-26 00:00:00 7.3 6 Sur 12 Sudeste 0.2 -- -- 96
2021-01-25 23:00:00 7.7 9 Sudeste 15 Sudeste 0.4 -- -- 97
2021-01-25 22:00:00 7.8 8 Sudeste 10 Sudeste 0.2 -- -- 98
2021-01-25 21:00:00 7.9 6 Sudeste 10 Este 0.2 -- -- 97
2021-01-25 20:00:00 8 6 Este 11 Este 0.4 -- -- 97
2021-01-25 19:00:00 8.4 6 Este 12 Este 0.2 -- -- 96
2021-01-25 18:00:00 8.6 8 Nordeste 18 Nordeste 0.4 -- -- 96
2021-01-25 17:00:00 8.9 12 Nordeste 22 Nordeste 0.4 -- -- 97
2021-01-25 16:00:00 9.1 10 Nordeste 22 Nordeste 0.4 -- -- 98
2021-01-25 15:00:00 8.8 15 Nordeste 20 Nordeste 0.4 -- -- 98
2021-01-25 14:00:00 9.3 6 Norte 12 Norte 0.4 -- -- 98
2021-01-25 13:00:00 9.8 6 Norte 8 Nordeste 0.6 -- -- 99
2021-01-25 12:00:00 9.2 6 Sudoeste 11 Sudoeste 0.4 -- -- 99
2021-01-25 11:00:00 8.6 8 Sudoeste 9 Sudoeste 0.4 -- -- 99
2021-01-25 10:00:00 8.3 3 Nordeste 13 Sudeste 0.4 -- -- 98
2021-01-25 09:00:00 7.9 9 Sudeste 14 Sudeste 0.6 -- -- 98
2021-01-25 08:00:00 7.8 5 Sur 10 Sudeste 0.4 -- -- 98
2021-01-25 07:00:00 7.9 7 Sudeste 10 Sudeste 0.4 -- -- 98
2021-01-25 06:00:00 8 6 Sur 7 Sur 0.4 -- -- 98
2021-01-25 05:00:00 8 4 Sur 13 Sudeste 0.6 -- -- 98
2021-01-25 04:00:00 8.2 7 Sur 13 Sudeste 0.4 -- -- 98
2021-01-25 03:00:00 8.7 9 Sudeste 13 Sudeste 0.6 -- -- 97
2021-01-25 02:00:00 9.3 6 Sudoeste 9 Sudoeste 0.8 -- -- 97
2021-01-25 01:00:00 9.6 3 Sudoeste 14 Oeste 0.8 -- -- 97
2021-01-25 00:00:00 9.4 10 Oeste 28 Noroeste 0.8 -- -- 96